Prince Frederick, Maryland
Current Conditions -  °F | °C
As of 8:56 PM on Friday 31 Oct 2014 (Local Time) from K2W6 Reporting Station
Clear Clear  
Wind Chill: 41°   Ceiling: Unl
Heat Index: 41°   Visibility: 10mi
Dew Point: 36°   Wind: 0mph
Humidity: 81%   Direction: NA
Pressure: 29.85"   Gusts: NA
Location:  38.54°N, 76.58°W
Report Text: K2W6 010056Z AUTO 00000KT 10SM CLR 05/02 A2985 RMK AO1
Loading
Personal Weather Stations






























Interactive Weather Map
Tropical Storm Tracking
New forecast layout! Learn more

10-Day Weather Forecast

Advertisements
Track Severe Weather on mobile